Terminal Aerodrome Forecast
Issued by NWS Northern Indiana

Home | Current Version | Previous Version | Graphics & Text | Print | Product List | Glossary On
Versions: 1 2 3 4 5 6 7 8 9 10 11 12 13 14 15
000
FTUS43 KIWX 220500 RRA
TAFFWA
TAF
KFWA 220541Z 2206/2306 15008KT P6SM OVC040
     FM220900 19011KT P6SM OVC030 WS020/24050KT
      TEMPO 2209/2212 6SM -FZRA BR OVC025
     FM221200 20012KT 5SM -RA BR OVC020 WS020/24055KT
     FM230000 20011KT 4SM -RA BR OVC020=

USA.gov is the U.S. government's official web portal to all federal, state and local government web resources and services.